createdAt,value
2022-08-05T00:01:36.135Z,7.20
2022-08-05T00:04:16.540Z,7.00
2022-08-05T00:06:43.579Z,8.82
2022-08-05T00:09:12.892Z,6.63
2022-08-05T00:11:47.397Z,9.00
2022-08-05T00:14:16.872Z,6.25
2022-08-05T00:16:52.971Z,6.35
2022-08-05T00:19:23.470Z,8.35
2022-08-05T00:21:52.490Z,9.32
2022-08-05T00:24:24.603Z,12.25
2022-08-05T00:26:58.623Z,8.60
2022-08-05T00:29:27.609Z,8.82
2022-08-05T00:32:12.853Z,10.82
2022-08-05T00:35:03.582Z,7.20
2022-08-05T00:37:51.254Z,6.43
2022-08-05T00:40:26.991Z,7.82
2022-08-05T00:43:01.066Z,5.90
2022-08-05T00:45:38.970Z,9.33
2022-08-05T00:48:12.599Z,7.33
2022-08-05T00:50:44.236Z,8.98
2022-08-05T00:54:01.161Z,8.80
2022-08-05T00:56:05.665Z,7.68
2022-08-05T00:58:35.291Z,9.38
2022-08-05T01:01:06.050Z,8.07
2022-08-05T01:03:37.891Z,6.68
2022-08-05T01:06:05.719Z,7.07
2022-08-05T01:08:43.418Z,5.72
2022-08-05T01:11:22.191Z,8.27
2022-08-05T01:14:08.933Z,10.40
2022-08-05T01:17:02.527Z,9.32
2022-08-05T01:20:02.025Z,5.97
2022-08-05T01:23:14.567Z,8.95
2022-08-05T01:26:04.608Z,6.80
2022-08-05T01:28:45.387Z,11.35
2022-08-05T01:31:23.170Z,10.77
2022-08-05T01:34:09.766Z,8.40
2022-08-05T01:36:47.124Z,11.88
2022-08-05T01:39:45.525Z,9.23
2022-08-05T01:42:05.456Z,9.60
2022-08-05T01:44:35.475Z,7.35
2022-08-05T01:47:05.112Z,10.15
2022-08-05T01:50:00.287Z,7.63
2022-08-05T01:52:22.210Z,7.35
2022-08-05T01:54:57.993Z,8.30
2022-08-05T01:58:29.498Z,7.38
2022-08-05T02:00:19.485Z,6.72
2022-08-05T02:03:03.738Z,7.93
2022-08-05T02:05:35.974Z,8.73
2022-08-05T02:08:04.915Z,7.97
2022-08-05T02:10:40.396Z,5.10
2022-08-05T02:13:16.160Z,6.03
2022-08-05T02:16:03.015Z,9.45
2022-08-05T02:18:41.970Z,9.40
2022-08-05T02:21:22.696Z,7.80
2022-08-05T02:23:53.743Z,6.75
2022-08-05T02:26:54.598Z,6.45
2022-08-05T02:29:58.060Z,7.40
2022-08-05T02:32:23.793Z,6.70
2022-08-05T02:35:09.811Z,7.68
2022-08-05T02:37:46.553Z,10.10
2022-08-05T02:40:21.293Z,5.65
2022-08-05T02:42:52.750Z,8.23
2022-08-05T02:45:23.857Z,7.97
2022-08-05T02:48:07.458Z,7.32
2022-08-05T02:50:43.704Z,12.77
2022-08-05T02:53:16.000Z,9.93
2022-08-05T02:55:52.142Z,7.03
2022-08-05T02:58:23.194Z,10.13
2022-08-05T03:01:02.285Z,8.23
2022-08-05T03:03:34.086Z,9.05
2022-08-05T03:06:53.645Z,9.88
2022-08-05T03:09:08.087Z,8.50
2022-08-05T03:11:54.545Z,8.80
2022-08-05T03:14:22.288Z,7.80
2022-08-05T03:16:49.562Z,9.13
2022-08-05T03:19:33.941Z,8.45
2022-08-05T03:22:05.034Z,6.05
2022-08-05T03:24:46.912Z,8.10
2022-08-05T03:27:15.906Z,7.85
2022-08-05T03:29:45.283Z,6.00
2022-08-05T03:32:31.454Z,8.20
2022-08-05T03:34:59.436Z,8.18
2022-08-05T03:37:27.849Z,6.93
2022-08-05T03:40:01.436Z,7.07
2022-08-05T03:42:32.886Z,9.43
2022-08-05T03:45:21.489Z,8.43
2022-08-05T03:47:50.173Z,8.00
2022-08-05T03:50:18.040Z,7.22
2022-08-05T03:55:53.360Z,5.70
2022-08-05T03:56:11.648Z,6.47
2022-08-05T03:58:41.143Z,5.80
2022-08-05T04:01:11.272Z,9.07
2022-08-05T04:03:42.434Z,5.00
2022-08-05T04:06:31.027Z,5.50
2022-08-05T04:08:59.275Z,7.55
2022-08-05T04:11:42.571Z,8.00
2022-08-05T04:14:17.888Z,6.28
2022-08-05T04:16:45.613Z,6.50
2022-08-05T04:19:13.422Z,5.53
2022-08-05T04:22:05.259Z,5.78
2022-08-05T04:24:28.537Z,7.32
2022-08-05T04:26:58.196Z,10.43
2022-08-05T04:29:25.233Z,7.30
2022-08-05T04:31:54.241Z,5.28
2022-08-05T04:34:32.454Z,6.43
2022-08-05T04:37:00.184Z,6.72
2022-08-05T04:39:28.043Z,6.30
2022-08-05T04:41:55.420Z,9.88
2022-08-05T04:44:29.449Z,7.47
2022-08-05T04:47:09.458Z,6.88
2022-08-05T04:50:01.588Z,6.18
2022-08-05T04:52:28.495Z,6.03
2022-08-05T04:54:56.943Z,5.47
2022-08-05T04:57:28.987Z,11.75
2022-08-05T04:59:58.625Z,5.72
2022-08-05T05:02:36.105Z,4.90
2022-08-05T05:05:26.185Z,8.07
2022-08-05T05:08:01.720Z,7.03
2022-08-05T05:10:30.820Z,10.05
2022-08-05T05:13:00.580Z,8.23
2022-08-05T05:15:59.166Z,11.10
2022-08-05T05:18:28.214Z,8.55
2022-08-05T05:20:55.889Z,11.20
2022-08-05T05:23:25.516Z,8.02
2022-08-05T05:25:52.470Z,9.73
2022-08-05T05:28:19.860Z,7.80
2022-08-05T05:30:49.828Z,9.45
2022-08-05T05:33:17.523Z,7.53
2022-08-05T05:35:47.502Z,6.07
2022-08-05T05:38:22.171Z,7.90
2022-08-05T05:40:51.560Z,5.13
2022-08-05T05:43:57.524Z,6.20
2022-08-05T05:46:17.246Z,5.35
2022-08-05T05:48:46.331Z,10.85
2022-08-05T05:51:27.866Z,6.78
2022-08-05T05:53:59.485Z,7.43
2022-08-05T05:56:34.466Z,6.35
2022-08-05T05:59:05.656Z,7.68
2022-08-05T06:01:37.136Z,4.88
2022-08-05T06:04:11.945Z,4.65
2022-08-05T06:06:47.549Z,7.40
2022-08-05T06:09:26.530Z,8.65
2022-08-05T06:12:05.356Z,6.95
2022-08-05T06:14:33.319Z,5.68
2022-08-05T06:17:22.346Z,5.47
2022-08-05T06:19:57.080Z,7.25
2022-08-05T06:22:33.765Z,8.43
2022-08-05T06:25:25.084Z,9.73
2022-08-05T06:28:10.965Z,10.38
2022-08-05T06:30:36.863Z,9.50
2022-08-05T06:33:03.816Z,7.72
2022-08-05T06:36:03.715Z,4.82
2022-08-05T06:38:18.112Z,6.22
2022-08-05T06:41:03.702Z,6.47
2022-08-05T06:43:57.576Z,8.73
2022-08-05T06:46:18.205Z,6.47
2022-08-05T06:48:55.816Z,5.22
2022-08-05T06:51:30.044Z,7.63
2022-08-05T06:53:59.894Z,4.80
2022-08-05T06:56:28.158Z,3.33
2022-08-05T06:58:55.553Z,5.18
2022-08-05T07:01:27.482Z,6.93
2022-08-05T07:03:58.822Z,3.53
2022-08-05T07:06:35.257Z,7.80
2022-08-05T07:09:03.730Z,7.45
2022-08-05T07:11:37.164Z,6.80
2022-08-05T07:14:29.269Z,8.65
2022-08-05T07:18:02.047Z,4.90
2022-08-05T07:22:41.946Z,7.18
2022-08-05T07:25:53.829Z,13.48
2022-08-05T07:28:03.825Z,4.88
2022-08-05T07:30:38.280Z,6.90
2022-08-05T07:33:15.498Z,12.73
2022-08-05T07:36:03.519Z,4.07
2022-08-05T07:38:33.271Z,5.78
2022-08-05T07:42:08.399Z,4.15
2022-08-05T07:43:59.802Z,7.82
2022-08-05T07:46:28.695Z,6.22
2022-08-05T07:49:02.529Z,8.15
2022-08-05T07:51:37.195Z,8.93
2022-08-05T07:54:08.484Z,6.13
2022-08-05T07:57:00.759Z,6.13
2022-08-05T07:59:38.967Z,6.30
2022-08-05T08:02:10.635Z,3.90
2022-08-05T08:18:50.220Z,9.27
2022-08-05T08:21:17.962Z,8.07
2022-08-05T08:24:01.238Z,8.40
2022-08-05T08:26:32.223Z,7.53
2022-08-05T10:01:02.198Z,4.05
2022-08-05T10:26:05.690Z,4.07
2022-08-05T10:28:36.597Z,5.25
2022-08-05T10:32:50.500Z,4.88
2022-08-05T10:33:54.218Z,8.57
2022-08-05T10:36:23.575Z,4.55
2022-08-05T10:39:10.090Z,2.30
2022-08-05T10:42:02.287Z,6.72
2022-08-05T10:44:32.163Z,8.83
2022-08-05T10:47:10.174Z,6.93
2022-08-05T10:50:31.961Z,10.50
2022-08-05T10:52:54.009Z,3.33
2022-08-05T10:55:26.737Z,4.13
2022-08-05T10:58:21.328Z,3.75
2022-08-05T11:00:55.343Z,4.22
2022-08-05T11:03:30.286Z,7.43
2022-08-05T11:06:16.135Z,9.52
2022-08-05T11:20:47.430Z,4.18
2022-08-05T11:24:14.747Z,6.70
2022-08-05T11:27:29.202Z,4.13
2022-08-05T11:30:16.377Z,4.30
2022-08-05T11:32:43.301Z,6.57
2022-08-05T11:36:07.992Z,6.07
2022-08-05T11:38:45.997Z,4.40
2022-08-05T11:41:56.223Z,3.25
2022-08-05T11:44:12.806Z,5.65
2022-08-05T11:47:14.061Z,7.63
2022-08-05T11:49:49.700Z,6.00
2022-08-05T11:52:29.323Z,7.10
2022-08-05T11:54:58.818Z,5.88
2022-08-05T11:58:08.579Z,2.47
2022-08-05T12:00:30.232Z,3.25
2022-08-05T12:02:57.977Z,5.22
2022-08-05T12:05:36.368Z,13.10
2022-08-05T12:08:09.864Z,5.45
2022-08-05T12:10:45.411Z,2.47
2022-08-05T12:13:28.130Z,6.57
2022-08-05T12:16:14.149Z,8.85
2022-08-05T12:18:48.663Z,5.40
2022-08-05T12:21:26.769Z,4.85
2022-08-05T12:24:08.001Z,6.43
2022-08-05T12:26:37.963Z,5.63
2022-08-05T12:29:17.859Z,4.40
2022-08-05T12:31:55.572Z,4.78
2022-08-05T12:34:28.565Z,6.85
2022-08-05T12:36:58.203Z,2.30
2022-08-05T12:39:34.634Z,7.55
2022-08-05T12:42:17.256Z,3.22
2022-08-05T12:44:45.335Z,5.10
2022-08-05T12:47:17.277Z,3.50
2022-08-05T12:50:04.719Z,9.63
2022-08-05T12:52:42.497Z,4.82
2022-08-05T12:55:23.878Z,7.38
2022-08-05T12:58:38.804Z,5.75
2022-08-05T13:02:02.287Z,6.82
2022-08-05T13:03:32.523Z,6.45
2022-08-05T13:06:01.377Z,5.88
2022-08-05T13:08:32.271Z,3.70
2022-08-05T13:11:02.271Z,3.70
2022-08-05T13:14:06.342Z,5.20
2022-08-05T13:16:19.644Z,8.63
2022-08-05T13:18:58.674Z,7.00
2022-08-05T13:21:27.870Z,4.65
2022-08-05T13:24:05.811Z,3.50
2022-08-05T13:26:36.838Z,6.53
2022-08-05T13:29:05.183Z,4.90
2022-08-05T13:32:03.766Z,5.80
2022-08-05T13:34:25.997Z,2.65
2022-08-05T13:36:54.011Z,5.53
2022-08-05T13:40:13.682Z,7.20
2022-08-05T13:42:14.434Z,7.75
2022-08-05T13:44:46.375Z,3.38
2022-08-05T13:47:35.230Z,6.35
2022-08-05T13:50:06.440Z,5.47
2022-08-05T13:52:36.723Z,3.17
2022-08-05T13:55:07.656Z,5.30
2022-08-05T13:57:51.184Z,5.40
2022-08-05T14:00:26.825Z,5.32
2022-08-05T14:02:56.987Z,5.47
2022-08-05T14:05:48.253Z,5.43
2022-08-05T14:08:21.421Z,4.35
2022-08-05T14:11:03.282Z,6.50
2022-08-05T14:13:42.165Z,1.55
2022-08-05T14:16:11.648Z,9.23
2022-08-05T14:18:44.072Z,8.98
2022-08-05T14:22:08.427Z,5.40
2022-08-05T14:23:58.332Z,2.67
2022-08-05T14:26:35.805Z,2.40
2022-08-05T14:29:16.018Z,5.00
2022-08-05T14:32:02.356Z,3.75
2022-08-05T14:34:35.668Z,3.40
2022-08-05T14:37:04.506Z,4.10
2022-08-05T14:39:49.821Z,6.25
2022-08-05T14:42:21.758Z,3.95
2022-08-05T14:44:49.428Z,4.60
2022-08-05T14:47:16.974Z,5.22
2022-08-05T14:50:15.644Z,3.45
2022-08-05T14:52:53.196Z,3.85
2022-08-05T14:55:38.768Z,4.88
2022-08-05T14:58:10.956Z,3.63
2022-08-05T15:00:39.580Z,2.08
2022-08-05T15:03:26.316Z,3.45
2022-08-05T15:06:07.784Z,6.50
2022-08-05T15:08:59.517Z,4.57
2022-08-05T15:11:51.507Z,10.15
2022-08-05T15:14:33.964Z,7.40
2022-08-05T15:17:03.767Z,3.45
2022-08-05T15:19:31.385Z,5.85
2022-08-05T15:22:01.191Z,5.70
2022-08-05T15:24:29.612Z,6.30
2022-08-05T15:26:57.756Z,6.53
2022-08-05T15:29:30.325Z,5.80
2022-08-05T15:32:02.211Z,7.05
2022-08-05T15:34:33.197Z,5.85
2022-08-05T15:37:06.530Z,5.25
2022-08-05T15:41:01.106Z,6.72
2022-08-05T15:42:58.254Z,7.60
2022-08-05T15:45:15.992Z,5.57
2022-08-05T15:47:44.378Z,4.75
2022-08-05T15:50:15.328Z,2.47
2022-08-05T15:52:52.642Z,3.63
2022-08-05T15:55:25.008Z,4.68
2022-08-05T15:58:16.869Z,2.70
2022-08-05T16:01:03.492Z,7.10
2022-08-05T16:03:33.843Z,8.93
2022-08-05T16:06:02.271Z,3.47
2022-08-05T16:08:30.413Z,3.17
2022-08-05T16:10:58.697Z,4.10
2022-08-05T16:13:34.486Z,3.33
2022-08-05T16:16:03.295Z,2.80
2022-08-05T16:18:32.962Z,3.63
2022-08-05T16:21:04.374Z,3.97
2022-08-05T16:23:53.334Z,4.25
2022-08-05T16:26:26.297Z,8.00
2022-08-05T16:28:54.823Z,6.53
2022-08-05T16:31:22.566Z,3.13
2022-08-05T16:33:52.175Z,5.07
2022-08-05T16:36:23.879Z,5.45
2022-08-05T16:38:54.931Z,5.55
2022-08-05T16:42:14.654Z,3.13
2022-08-05T16:44:11.995Z,4.45
2022-08-05T16:46:41.070Z,6.47
2022-08-05T16:49:10.000Z,9.38
2022-08-05T16:51:42.916Z,10.88
2022-08-05T16:54:25.811Z,5.88
2022-08-05T16:56:56.049Z,5.65
2022-08-05T16:59:23.322Z,6.43
2022-08-05T17:01:54.063Z,4.22
2022-08-05T17:04:27.345Z,6.25
2022-08-05T17:06:56.879Z,8.25
2022-08-05T17:09:25.169Z,7.32
2022-08-05T17:11:59.282Z,2.88
2022-08-05T17:14:36.919Z,5.80
2022-08-05T17:17:06.124Z,8.63
2022-08-05T17:19:33.872Z,10.30
2022-08-05T17:22:01.342Z,320.35
2022-08-05T17:24:38.514Z,445.20
2022-08-05T17:27:09.463Z,222.95
2022-08-05T17:29:40.782Z,74.18
2022-08-05T17:32:17.178Z,23.77
2022-08-05T17:34:49.087Z,29.33
2022-08-05T17:37:39.377Z,9.68
2022-08-05T17:40:12.418Z,18.98
2022-08-05T17:42:49.873Z,8.52
2022-08-05T17:45:20.596Z,7.78
2022-08-05T17:47:53.879Z,9.63
2022-08-05T17:50:28.654Z,8.70
2022-08-05T17:53:02.036Z,6.60
2022-08-05T17:55:38.045Z,6.93
2022-08-05T17:58:12.648Z,10.77
2022-08-05T18:00:47.719Z,6.95
2022-08-05T18:03:58.678Z,9.65
2022-08-05T18:06:12.160Z,9.18
2022-08-05T18:08:46.172Z,11.65
2022-08-05T18:11:23.831Z,10.52
2022-08-05T18:14:07.134Z,7.55
2022-08-05T18:16:51.205Z,15.52
2022-08-05T18:19:22.484Z,7.22
2022-08-05T18:22:08.286Z,12.63
2022-08-05T18:24:36.682Z,14.73
2022-08-05T18:27:04.006Z,8.27
2022-08-05T18:29:40.999Z,9.82
2022-08-05T18:32:12.715Z,10.40
2022-08-05T18:34:43.318Z,9.02
2022-08-05T18:37:12.570Z,10.13
2022-08-05T18:40:33.715Z,10.55
2022-08-05T18:42:30.968Z,13.57
2022-08-05T18:44:57.910Z,15.82
2022-08-05T18:47:27.123Z,13.25
2022-08-05T18:50:15.761Z,12.32
2022-08-05T18:52:50.734Z,20.48
2022-08-05T18:55:20.174Z,12.93
2022-08-05T18:57:52.854Z,11.50
2022-08-05T19:02:56.961Z,13.00
2022-08-05T19:06:13.003Z,20.48
2022-08-05T19:08:12.109Z,12.90
2022-08-05T19:10:41.174Z,15.80
2022-08-05T19:13:12.260Z,13.55
2022-08-05T19:15:57.389Z,14.70
2022-08-05T19:18:27.588Z,15.88
2022-08-05T19:20:55.792Z,20.83
2022-08-05T19:24:06.902Z,19.98
2022-08-05T19:26:11.374Z,15.15
2022-08-05T19:28:42.407Z,14.55
2022-08-05T19:31:13.122Z,10.63
2022-08-05T19:33:48.722Z,10.68
2022-08-05T19:36:29.399Z,10.77
2022-08-05T19:38:58.863Z,15.75
2022-08-05T19:41:58.557Z,9.77
2022-08-05T19:44:19.004Z,13.95
2022-08-05T19:46:46.660Z,20.58
2022-08-05T19:49:17.094Z,12.80
2022-08-05T19:52:08.741Z,16.15
2022-08-05T19:54:34.979Z,17.92
2022-08-05T19:57:06.460Z,16.90
2022-08-05T19:59:54.727Z,13.57
2022-08-05T20:02:27.981Z,12.38
2022-08-05T20:04:58.726Z,17.05
2022-08-05T20:07:46.022Z,18.85
2022-08-05T20:10:14.810Z,24.42
2022-08-05T20:12:47.568Z,17.35
2022-08-05T20:15:48.529Z,16.63
2022-08-05T20:18:10.723Z,12.27
2022-08-05T20:20:56.849Z,18.52
2022-08-05T20:23:40.737Z,16.98
2022-08-05T20:26:16.192Z,20.00
2022-08-05T20:28:50.804Z,15.10
2022-08-05T20:31:21.653Z,10.00
2022-08-05T20:33:55.812Z,11.35
2022-08-05T20:36:24.215Z,10.55
2022-08-05T20:38:53.695Z,12.77
2022-08-05T20:41:27.467Z,12.55
2022-08-05T20:44:17.074Z,11.25
2022-08-05T20:46:48.090Z,14.27
2022-08-05T20:49:15.348Z,16.13
2022-08-05T20:51:53.758Z,12.48
2022-08-05T20:54:21.485Z,14.02
2022-08-05T20:56:48.982Z,17.85
2022-08-05T20:59:26.511Z,15.05
2022-08-05T21:01:57.293Z,16.73
2022-08-05T21:04:26.849Z,22.23
2022-08-05T21:06:55.075Z,13.27
2022-08-05T21:09:22.890Z,17.85
2022-08-05T21:12:07.621Z,9.10
2022-08-05T21:14:38.094Z,9.50
2022-08-05T21:17:06.023Z,8.50
2022-08-05T21:19:46.864Z,7.72
2022-08-05T21:22:21.865Z,10.32
2022-08-05T21:24:52.399Z,18.92
2022-08-05T21:27:25.295Z,15.32
2022-08-05T21:29:55.492Z,9.25
2022-08-05T21:32:27.919Z,15.10
2022-08-05T21:35:08.851Z,13.77
2022-08-05T21:37:47.601Z,13.70
2022-08-05T21:40:21.919Z,10.00
2022-08-05T21:42:52.040Z,8.20
2022-08-05T21:45:24.076Z,14.82
2022-08-05T21:47:55.985Z,13.35
2022-08-05T21:50:25.630Z,14.13
2022-08-05T21:52:53.329Z,12.23
2022-08-05T21:56:01.519Z,8.70
2022-08-05T21:58:10.338Z,8.68
2022-08-05T22:00:40.124Z,17.65
2022-08-05T22:03:09.756Z,13.07
2022-08-05T22:05:48.762Z,10.30
2022-08-05T22:08:22.066Z,9.25
2022-08-05T22:10:51.567Z,11.77
2022-08-05T22:14:19.920Z,8.70
2022-08-05T22:16:32.320Z,8.18
2022-08-05T22:18:58.689Z,10.77
2022-08-05T22:21:26.131Z,8.13
2022-08-05T22:24:13.224Z,14.63
2022-08-05T22:28:08.219Z,11.00
2022-08-05T22:30:21.553Z,11.98
2022-08-05T22:32:50.715Z,8.40
2022-08-05T22:35:22.284Z,13.60
2022-08-05T22:37:58.515Z,9.05
2022-08-05T22:40:26.994Z,7.72
2022-08-05T22:42:58.395Z,9.75
2022-08-05T22:45:26.559Z,12.23
2022-08-05T22:47:57.305Z,9.18
2022-08-05T22:50:27.705Z,11.68
2022-08-05T22:52:55.756Z,10.68
2022-08-05T22:55:24.013Z,12.25
2022-08-05T22:57:53.995Z,8.38
2022-08-05T23:00:23.333Z,10.23
2022-08-05T23:02:53.302Z,9.30
2022-08-05T23:05:22.385Z,10.60
2022-08-05T23:07:51.228Z,8.95
2022-08-05T23:10:24.030Z,10.80
2022-08-05T23:12:54.701Z,10.90
2022-08-05T23:15:29.444Z,13.10
2022-08-05T23:18:00.970Z,9.75
2022-08-05T23:20:37.225Z,7.40
2022-08-05T23:23:08.688Z,9.05
2022-08-05T23:25:51.258Z,7.85
2022-08-05T23:28:27.655Z,7.38
2022-08-05T23:31:16.118Z,11.77
2022-08-05T23:34:04.760Z,11.23
2022-08-05T23:36:39.857Z,7.57
2022-08-05T23:39:17.640Z,8.20
2022-08-05T23:41:59.540Z,10.38
2022-08-05T23:44:31.421Z,10.32
2022-08-05T23:46:59.990Z,9.63
2022-08-05T23:49:34.069Z,11.93
2022-08-05T23:52:21.972Z,9.00
2022-08-05T23:55:05.292Z,8.55
2022-08-05T23:57:34.419Z,9.63
